Terminal Aerodrome Forecast
Issued by NWS Twin Cities, MN

Home | Current Version | Previous Version | Text Only | Print | Product List | Glossary Off
Versions: 1 2 3 4 5 6 7 8 9 10 11 12 13

559
FTUS43 KMPX 210520
TAFSTC
TAF
KSTC 210520Z 2106/2206 00000KT P6SM SCT120
     FM211400 09004KT P6SM SCT050 BKN200
     FM212200 35005KT P6SM BKN050 OVC250=

USA.gov is the U.S. government's official web portal to all federal, state and local government web resources and services.